sensor_id;sensor_type;location;lat;lon;timestamp;P1;durP1;ratioP1;P2;durP2;ratioP2
18947;SDS011;9607;51.600;7.558;2024-02-15T00:01:20;12.35;;;7.88;;
18947;SDS011;9607;51.600;7.558;2024-02-15T00:03:47;10.23;;;8.32;;
18947;SDS011;9607;51.600;7.558;2024-02-15T00:06:17;8.98;;;7.88;;
18947;SDS011;9607;51.600;7.558;2024-02-15T00:08:44;8.98;;;7.85;;
18947;SDS011;9607;51.600;7.558;2024-02-15T00:11:11;11.95;;;9.10;;
18947;SDS011;9607;51.600;7.558;2024-02-15T00:13:38;10.50;;;8.65;;
18947;SDS011;9607;51.600;7.558;2024-02-15T00:16:06;12.90;;;10.60;;
18947;SDS011;9607;51.600;7.558;2024-02-15T00:18:33;9.18;;;7.70;;
18947;SDS011;9607;51.600;7.558;2024-02-15T00:21:00;13.27;;;8.52;;
18947;SDS011;9607;51.600;7.558;2024-02-15T00:23:28;10.93;;;8.57;;
18947;SDS011;9607;51.600;7.558;2024-02-15T00:25:57;11.43;;;7.93;;
18947;SDS011;9607;51.600;7.558;2024-02-15T00:28:24;12.00;;;8.40;;
18947;SDS011;9607;51.600;7.558;2024-02-15T00:30:51;11.50;;;9.02;;
18947;SDS011;9607;51.600;7.558;2024-02-15T00:33:18;11.88;;;8.45;;
18947;SDS011;9607;51.600;7.558;2024-02-15T00:35:45;12.68;;;7.97;;
18947;SDS011;9607;51.600;7.558;2024-02-15T00:38:17;15.32;;;8.40;;
18947;SDS011;9607;51.600;7.558;2024-02-15T00:40:47;13.23;;;8.77;;
18947;SDS011;9607;51.600;7.558;2024-02-15T00:43:14;13.00;;;8.73;;
18947;SDS011;9607;51.600;7.558;2024-02-15T00:45:40;9.98;;;7.55;;
18947;SDS011;9607;51.600;7.558;2024-02-15T00:48:07;9.70;;;6.95;;
18947;SDS011;9607;51.600;7.558;2024-02-15T00:50:35;8.57;;;7.45;;
18947;SDS011;9607;51.600;7.558;2024-02-15T00:53:02;10.38;;;7.53;;
18947;SDS011;9607;51.600;7.558;2024-02-15T00:55:29;12.50;;;8.05;;
18947;SDS011;9607;51.600;7.558;2024-02-15T00:57:57;10.02;;;8.23;;
18947;SDS011;9607;51.600;7.558;2024-02-15T01:00:24;12.55;;;8.30;;
18947;SDS011;9607;51.600;7.558;2024-02-15T01:02:51;11.57;;;7.95;;
18947;SDS011;9607;51.600;7.558;2024-02-15T01:05:20;11.52;;;8.02;;
18947;SDS011;9607;51.600;7.558;2024-02-15T01:07:49;10.02;;;7.97;;
18947;SDS011;9607;51.600;7.558;2024-02-15T01:10:17;10.80;;;8.27;;
18947;SDS011;9607;51.600;7.558;2024-02-15T01:12:45;13.30;;;7.70;;
18947;SDS011;9607;51.600;7.558;2024-02-15T01:15:13;12.15;;;7.25;;
18947;SDS011;9607;51.600;7.558;2024-02-15T01:17:43;11.43;;;7.15;;
18947;SDS011;9607;51.600;7.558;2024-02-15T01:20:10;9.88;;;7.55;;
18947;SDS011;9607;51.600;7.558;2024-02-15T01:22:38;8.73;;;7.35;;
18947;SDS011;9607;51.600;7.558;2024-02-15T01:25:05;9.57;;;7.45;;
18947;SDS011;9607;51.600;7.558;2024-02-15T01:27:32;12.02;;;7.65;;
18947;SDS011;9607;51.600;7.558;2024-02-15T01:29:59;10.18;;;7.95;;
18947;SDS011;9607;51.600;7.558;2024-02-15T01:32:28;8.88;;;7.78;;
18947;SDS011;9607;51.600;7.558;2024-02-15T01:34:56;9.75;;;7.68;;
18947;SDS011;9607;51.600;7.558;2024-02-15T01:37:22;8.88;;;7.30;;
18947;SDS011;9607;51.600;7.558;2024-02-15T01:39:49;12.55;;;8.65;;
18947;SDS011;9607;51.600;7.558;2024-02-15T01:42:17;9.45;;;8.35;;
18947;SDS011;9607;51.600;7.558;2024-02-15T01:44:44;8.40;;;7.45;;
18947;SDS011;9607;51.600;7.558;2024-02-15T01:47:12;11.88;;;8.68;;
18947;SDS011;9607;51.600;7.558;2024-02-15T01:49:44;11.85;;;8.98;;
18947;SDS011;9607;51.600;7.558;2024-02-15T01:52:11;12.43;;;8.45;;
18947;SDS011;9607;51.600;7.558;2024-02-15T01:54:39;12.27;;;8.30;;
18947;SDS011;9607;51.600;7.558;2024-02-15T01:57:06;11.32;;;8.65;;
18947;SDS011;9607;51.600;7.558;2024-02-15T01:59:33;12.32;;;9.07;;
18947;SDS011;9607;51.600;7.558;2024-02-15T02:02:01;18.30;;;9.65;;
18947;SDS011;9607;51.600;7.558;2024-02-15T02:04:30;14.23;;;8.82;;
18947;SDS011;9607;51.600;7.558;2024-02-15T02:06:59;12.20;;;9.75;;
18947;SDS011;9607;51.600;7.558;2024-02-15T02:09:26;14.30;;;9.32;;
18947;SDS011;9607;51.600;7.558;2024-02-15T02:11:53;12.77;;;9.18;;
18947;SDS011;9607;51.600;7.558;2024-02-15T02:14:20;13.10;;;9.30;;
18947;SDS011;9607;51.600;7.558;2024-02-15T02:16:47;12.73;;;8.75;;
18947;SDS011;9607;51.600;7.558;2024-02-15T02:19:14;18.52;;;9.77;;
18947;SDS011;9607;51.600;7.558;2024-02-15T02:21:42;14.18;;;9.10;;
18947;SDS011;9607;51.600;7.558;2024-02-15T02:24:12;12.65;;;7.90;;
18947;SDS011;9607;51.600;7.558;2024-02-15T02:26:42;12.45;;;8.32;;
18947;SDS011;9607;51.600;7.558;2024-02-15T02:29:10;15.48;;;8.85;;
18947;SDS011;9607;51.600;7.558;2024-02-15T02:31:38;11.60;;;7.90;;
18947;SDS011;9607;51.600;7.558;2024-02-15T02:34:05;12.07;;;8.55;;
18947;SDS011;9607;51.600;7.558;2024-02-15T02:36:32;14.45;;;8.73;;
18947;SDS011;9607;51.600;7.558;2024-02-15T02:38:59;11.20;;;8.30;;
18947;SDS011;9607;51.600;7.558;2024-02-15T02:41:26;12.40;;;7.53;;
18947;SDS011;9607;51.600;7.558;2024-02-15T02:43:56;9.55;;;7.35;;
18947;SDS011;9607;51.600;7.558;2024-02-15T02:46:23;11.15;;;7.38;;
18947;SDS011;9607;51.600;7.558;2024-02-15T02:48:50;12.38;;;8.25;;
18947;SDS011;9607;51.600;7.558;2024-02-15T02:51:18;12.02;;;8.85;;
18947;SDS011;9607;51.600;7.558;2024-02-15T02:53:45;20.63;;;9.00;;
18947;SDS011;9607;51.600;7.558;2024-02-15T02:56:13;12.40;;;8.68;;
18947;SDS011;9607;51.600;7.558;2024-02-15T02:58:40;12.68;;;8.13;;
18947;SDS011;9607;51.600;7.558;2024-02-15T03:01:09;10.80;;;7.00;;
18947;SDS011;9607;51.600;7.558;2024-02-15T03:03:39;14.40;;;6.95;;
18947;SDS011;9607;51.600;7.558;2024-02-15T03:06:06;6.35;;;5.57;;
18947;SDS011;9607;51.600;7.558;2024-02-15T03:08:33;9.75;;;5.47;;
18947;SDS011;9607;51.600;7.558;2024-02-15T03:11:00;11.43;;;7.80;;
18947;SDS011;9607;51.600;7.558;2024-02-15T03:13:28;9.70;;;6.20;;
18947;SDS011;9607;51.600;7.558;2024-02-15T03:15:55;15.32;;;8.48;;
18947;SDS011;9607;51.600;7.558;2024-02-15T03:18:25;10.00;;;7.20;;
18947;SDS011;9607;51.600;7.558;2024-02-15T03:20:53;8.88;;;6.82;;
18947;SDS011;9607;51.600;7.558;2024-02-15T03:23:20;12.85;;;7.38;;
18947;SDS011;9607;51.600;7.558;2024-02-15T03:25:48;7.50;;;5.93;;
18947;SDS011;9607;51.600;7.558;2024-02-15T03:28:15;15.82;;;7.78;;
18947;SDS011;9607;51.600;7.558;2024-02-15T03:30:42;8.60;;;5.65;;
18947;SDS011;9607;51.600;7.558;2024-02-15T03:33:09;10.10;;;5.95;;
18947;SDS011;9607;51.600;7.558;2024-02-15T03:35:37;8.13;;;4.93;;
18947;SDS011;9607;51.600;7.558;2024-02-15T03:38:04;8.20;;;5.85;;
18947;SDS011;9607;51.600;7.558;2024-02-15T03:40:33;12.30;;;7.15;;
18947;SDS011;9607;51.600;7.558;2024-02-15T03:42:59;10.57;;;6.88;;
18947;SDS011;9607;51.600;7.558;2024-02-15T03:45:32;9.15;;;6.50;;
18947;SDS011;9607;51.600;7.558;2024-02-15T03:47:59;7.78;;;5.70;;
18947;SDS011;9607;51.600;7.558;2024-02-15T03:50:26;10.77;;;7.15;;
18947;SDS011;9607;51.600;7.558;2024-02-15T03:52:55;10.38;;;6.32;;
18947;SDS011;9607;51.600;7.558;2024-02-15T03:55:22;7.25;;;5.60;;
18947;SDS011;9607;51.600;7.558;2024-02-15T03:57:50;8.48;;;4.75;;
18947;SDS011;9607;51.600;7.558;2024-02-15T04:00:18;7.40;;;4.57;;
18947;SDS011;9607;51.600;7.558;2024-02-15T04:02:45;11.43;;;6.90;;
18947;SDS011;9607;51.600;7.558;2024-02-15T04:05:13;7.35;;;4.80;;
18947;SDS011;9607;51.600;7.558;2024-02-15T04:07:40;7.43;;;5.38;;
18947;SDS011;9607;51.600;7.558;2024-02-15T04:10:09;8.27;;;6.63;;
18947;SDS011;9607;51.600;7.558;2024-02-15T04:12:39;9.23;;;5.60;;
18947;SDS011;9607;51.600;7.558;2024-02-15T04:15:08;7.25;;;5.80;;
18947;SDS011;9607;51.600;7.558;2024-02-15T04:17:41;10.20;;;6.82;;
18947;SDS011;9607;51.600;7.558;2024-02-15T04:20:10;11.13;;;7.85;;
18947;SDS011;9607;51.600;7.558;2024-02-15T04:22:41;12.65;;;9.18;;
18947;SDS011;9607;51.600;7.558;2024-02-15T04:25:10;13.07;;;9.63;;
18947;SDS011;9607;51.600;7.558;2024-02-15T04:27:41;19.10;;;11.00;;
18947;SDS011;9607;51.600;7.558;2024-02-15T04:30:09;18.33;;;12.20;;
18947;SDS011;9607;51.600;7.558;2024-02-15T04:32:36;15.77;;;11.38;;
18947;SDS011;9607;51.600;7.558;2024-02-15T04:35:03;19.13;;;11.40;;
18947;SDS011;9607;51.600;7.558;2024-02-15T04:37:31;17.98;;;11.57;;
18947;SDS011;9607;51.600;7.558;2024-02-15T04:39:59;13.85;;;10.25;;
18947;SDS011;9607;51.600;7.558;2024-02-15T04:42:34;12.05;;;10.48;;
18947;SDS011;9607;51.600;7.558;2024-02-15T04:45:05;15.07;;;9.45;;
18947;SDS011;9607;51.600;7.558;2024-02-15T04:47:33;11.05;;;8.50;;
18947;SDS011;9607;51.600;7.558;2024-02-15T04:50:00;12.05;;;8.18;;
18947;SDS011;9607;51.600;7.558;2024-02-15T04:52:27;9.00;;;7.75;;
18947;SDS011;9607;51.600;7.558;2024-02-15T04:54:54;11.07;;;7.18;;
18947;SDS011;9607;51.600;7.558;2024-02-15T04:57:23;13.18;;;8.50;;
18947;SDS011;9607;51.600;7.558;2024-02-15T04:59:52;10.85;;;7.82;;
18947;SDS011;9607;51.600;7.558;2024-02-15T05:02:19;12.60;;;7.18;;
18947;SDS011;9607;51.600;7.558;2024-02-15T05:04:47;10.68;;;6.85;;
18947;SDS011;9607;51.600;7.558;2024-02-15T05:07:14;13.38;;;7.65;;
18947;SDS011;9607;51.600;7.558;2024-02-15T05:09:42;9.38;;;6.13;;
18947;SDS011;9607;51.600;7.558;2024-02-15T05:12:09;10.25;;;6.28;;
18947;SDS011;9607;51.600;7.558;2024-02-15T05:14:36;6.80;;;5.40;;
18947;SDS011;9607;51.600;7.558;2024-02-15T05:17:04;5.78;;;5.10;;
18947;SDS011;9607;51.600;7.558;2024-02-15T05:19:35;5.05;;;4.28;;
18947;SDS011;9607;51.600;7.558;2024-02-15T05:22:02;6.75;;;5.43;;
18947;SDS011;9607;51.600;7.558;2024-02-15T05:24:31;5.93;;;5.00;;
18947;SDS011;9607;51.600;7.558;2024-02-15T05:26:57;7.90;;;5.25;;
18947;SDS011;9607;51.600;7.558;2024-02-15T05:29:24;6.28;;;4.72;;
18947;SDS011;9607;51.600;7.558;2024-02-15T05:31:53;5.97;;;4.78;;
18947;SDS011;9607;51.600;7.558;2024-02-15T05:34:25;8.25;;;5.50;;
18947;SDS011;9607;51.600;7.558;2024-02-15T05:36:53;10.10;;;5.35;;
18947;SDS011;9607;51.600;7.558;2024-02-15T05:39:20;6.82;;;4.93;;
18947;SDS011;9607;51.600;7.558;2024-02-15T05:41:48;6.68;;;4.65;;
18947;SDS011;9607;51.600;7.558;2024-02-15T05:44:15;8.85;;;4.57;;
18947;SDS011;9607;51.600;7.558;2024-02-15T05:46:44;5.80;;;3.90;;
18947;SDS011;9607;51.600;7.558;2024-02-15T05:49:13;4.85;;;3.95;;
18947;SDS011;9607;51.600;7.558;2024-02-15T05:51:44;4.47;;;3.72;;
18947;SDS011;9607;51.600;7.558;2024-02-15T05:54:13;5.60;;;3.50;;
18947;SDS011;9607;51.600;7.558;2024-02-15T05:56:41;4.22;;;3.40;;
18947;SDS011;9607;51.600;7.558;2024-02-15T05:59:09;7.05;;;3.28;;
18947;SDS011;9607;51.600;7.558;2024-02-15T06:01:36;6.82;;;3.58;;
18947;SDS011;9607;51.600;7.558;2024-02-15T06:04:04;5.25;;;3.20;;
18947;SDS011;9607;51.600;7.558;2024-02-15T06:06:33;7.45;;;4.45;;
18947;SDS011;9607;51.600;7.558;2024-02-15T06:09:01;6.30;;;3.42;;
18947;SDS011;9607;51.600;7.558;2024-02-15T06:11:29;6.05;;;3.80;;
18947;SDS011;9607;51.600;7.558;2024-02-15T06:13:56;5.05;;;3.53;;
18947;SDS011;9607;51.600;7.558;2024-02-15T06:16:23;8.80;;;3.10;;
18947;SDS011;9607;51.600;7.558;2024-02-15T06:18:51;9.32;;;4.30;;
18947;SDS011;9607;51.600;7.558;2024-02-15T06:21:18;7.63;;;3.22;;
18947;SDS011;9607;51.600;7.558;2024-02-15T06:23:45;4.25;;;2.63;;
18947;SDS011;9607;51.600;7.558;2024-02-15T06:26:14;7.00;;;3.42;;
18947;SDS011;9607;51.600;7.558;2024-02-15T06:28:43;6.22;;;2.88;;
18947;SDS011;9607;51.600;7.558;2024-02-15T06:31:27;6.30;;;2.92;;
18947;SDS011;9607;51.600;7.558;2024-02-15T06:34:12;11.88;;;3.20;;
18947;SDS011;9607;51.600;7.558;2024-02-15T06:36:56;5.55;;;2.25;;
18947;SDS011;9607;51.600;7.558;2024-02-15T06:39:41;5.57;;;2.65;;
18947;SDS011;9607;51.600;7.558;2024-02-15T06:42:09;3.97;;;2.05;;
18947;SDS011;9607;51.600;7.558;2024-02-15T06:44:41;9.77;;;2.63;;
18947;SDS011;9607;51.600;7.558;2024-02-15T06:47:08;3.05;;;2.00;;
18947;SDS011;9607;51.600;7.558;2024-02-15T06:49:36;4.20;;;2.25;;
18947;SDS011;9607;51.600;7.558;2024-02-15T06:52:05;6.55;;;2.45;;
18947;SDS011;9607;51.600;7.558;2024-02-15T06:54:32;5.35;;;1.65;;
18947;SDS011;9607;51.600;7.558;2024-02-15T06:57:01;5.13;;;2.08;;
18947;SDS011;9607;51.600;7.558;2024-02-15T06:59:31;5.22;;;1.98;;
18947;SDS011;9607;51.600;7.558;2024-02-15T07:01:58;6.07;;;2.17;;
18947;SDS011;9607;51.600;7.558;2024-02-15T07:04:25;4.18;;;2.10;;
18947;SDS011;9607;51.600;7.558;2024-02-15T07:06:53;3.80;;;2.00;;
18947;SDS011;9607;51.600;7.558;2024-02-15T07:09:20;3.90;;;2.00;;
18947;SDS011;9607;51.600;7.558;2024-02-15T07:11:49;3.08;;;2.03;;
18947;SDS011;9607;51.600;7.558;2024-02-15T07:14:16;3.60;;;1.95;;
18947;SDS011;9607;51.600;7.558;2024-02-15T07:16:48;8.25;;;2.28;;
18947;SDS011;9607;51.600;7.558;2024-02-15T07:19:15;5.22;;;2.40;;
18947;SDS011;9607;51.600;7.558;2024-02-15T07:21:43;6.22;;;2.00;;
18947;SDS011;9607;51.600;7.558;2024-02-15T07:24:11;4.88;;;2.25;;
18947;SDS011;9607;51.600;7.558;2024-02-15T07:26:39;9.13;;;2.72;;
18947;SDS011;9607;51.600;7.558;2024-02-15T07:29:05;4.57;;;2.08;;
18947;SDS011;9607;51.600;7.558;2024-02-15T07:31:33;6.88;;;2.35;;
18947;SDS011;9607;51.600;7.558;2024-02-15T07:34:02;8.07;;;2.10;;
18947;SDS011;9607;51.600;7.558;2024-02-15T07:36:30;3.45;;;2.13;;
18947;SDS011;9607;51.600;7.558;2024-02-15T07:38:57;4.63;;;2.20;;
18947;SDS011;9607;51.600;7.558;2024-02-15T07:41:25;6.25;;;2.28;;
18947;SDS011;9607;51.600;7.558;2024-02-15T07:43:53;3.85;;;2.00;;
18947;SDS011;9607;51.600;7.558;2024-02-15T07:46:23;5.38;;;2.60;;
18947;SDS011;9607;51.600;7.558;2024-02-15T07:48:51;4.95;;;2.08;;
18947;SDS011;9607;51.600;7.558;2024-02-15T07:51:20;4.53;;;1.67;;
18947;SDS011;9607;51.600;7.558;2024-02-15T07:53:48;5.18;;;2.28;;
18947;SDS011;9607;51.600;7.558;2024-02-15T07:56:16;6.88;;;2.55;;
18947;SDS011;9607;51.600;7.558;2024-02-15T07:58:44;6.05;;;2.20;;
18947;SDS011;9607;51.600;7.558;2024-02-15T08:01:12;3.90;;;2.45;;
18947;SDS011;9607;51.600;7.558;2024-02-15T08:03:39;12.85;;;4.32;;
18947;SDS011;9607;51.600;7.558;2024-02-15T08:06:09;4.05;;;2.75;;
18947;SDS011;9607;51.600;7.558;2024-02-15T08:08:41;5.38;;;2.28;;
18947;SDS011;9607;51.600;7.558;2024-02-15T08:11:11;5.18;;;2.35;;
18947;SDS011;9607;51.600;7.558;2024-02-15T08:13:40;4.38;;;2.10;;
18947;SDS011;9607;51.600;7.558;2024-02-15T08:16:09;2.58;;;2.00;;
18947;SDS011;9607;51.600;7.558;2024-02-15T08:18:38;5.25;;;2.30;;
18947;SDS011;9607;51.600;7.558;2024-02-15T08:21:10;6.07;;;2.00;;
18947;SDS011;9607;51.600;7.558;2024-02-15T08:23:39;4.53;;;2.10;;
18947;SDS011;9607;51.600;7.558;2024-02-15T08:26:06;4.53;;;2.15;;
18947;SDS011;9607;51.600;7.558;2024-02-15T08:28:36;4.80;;;2.10;;
18947;SDS011;9607;51.600;7.558;2024-02-15T08:31:04;4.30;;;1.60;;
18947;SDS011;9607;51.600;7.558;2024-02-15T08:33:33;4.07;;;1.75;;
18947;SDS011;9607;51.600;7.558;2024-02-15T08:36:01;2.83;;;1.88;;
18947;SDS011;9607;51.600;7.558;2024-02-15T08:38:28;2.85;;;1.70;;
18947;SDS011;9607;51.600;7.558;2024-02-15T08:40:57;4.90;;;2.95;;
18947;SDS011;9607;51.600;7.558;2024-02-15T08:43:24;3.60;;;1.77;;
18947;SDS011;9607;51.600;7.558;2024-02-15T08:45:50;7.97;;;2.63;;
18947;SDS011;9607;51.600;7.558;2024-02-15T08:48:18;3.80;;;2.03;;
18947;SDS011;9607;51.600;7.558;2024-02-15T08:50:48;3.28;;;1.85;;
18947;SDS011;9607;51.600;7.558;2024-02-15T08:53:14;5.65;;;1.90;;
18947;SDS011;9607;51.600;7.558;2024-02-15T08:55:44;3.40;;;1.33;;
18947;SDS011;9607;51.600;7.558;2024-02-15T08:58:12;3.85;;;1.77;;
18947;SDS011;9607;51.600;7.558;2024-02-15T09:00:39;3.70;;;1.42;;
18947;SDS011;9607;51.600;7.558;2024-02-15T09:03:09;4.35;;;2.10;;
18947;SDS011;9607;51.600;7.558;2024-02-15T09:05:36;9.45;;;2.17;;
18947;SDS011;9607;51.600;7.558;2024-02-15T09:08:05;4.88;;;2.53;;
18947;SDS011;9607;51.600;7.558;2024-02-15T09:10:32;7.63;;;2.30;;
18947;SDS011;9607;51.600;7.558;2024-02-15T09:13:01;2.25;;;1.80;;
18947;SDS011;9607;51.600;7.558;2024-02-15T09:15:30;4.03;;;1.63;;
18947;SDS011;9607;51.600;7.558;2024-02-15T09:17:57;6.30;;;1.75;;
18947;SDS011;9607;51.600;7.558;2024-02-15T09:20:24;6.13;;;1.70;;
18947;SDS011;9607;51.600;7.558;2024-02-15T09:22:53;4.70;;;1.73;;
18947;SDS011;9607;51.600;7.558;2024-02-15T09:25:21;3.90;;;1.63;;
18947;SDS011;9607;51.600;7.558;2024-02-15T09:27:50;5.13;;;1.52;;
18947;SDS011;9607;51.600;7.558;2024-02-15T09:30:19;5.82;;;1.85;;
18947;SDS011;9607;51.600;7.558;2024-02-15T09:32:51;5.25;;;1.95;;
18947;SDS011;9607;51.600;7.558;2024-02-15T09:35:17;4.93;;;1.58;;
18947;SDS011;9607;51.600;7.558;2024-02-15T09:37:46;3.65;;;1.63;;
18947;SDS011;9607;51.600;7.558;2024-02-15T09:40:14;3.03;;;1.42;;
18947;SDS011;9607;51.600;7.558;2024-02-15T09:42:43;5.35;;;1.60;;
18947;SDS011;9607;51.600;7.558;2024-02-15T09:45:10;3.75;;;1.52;;
18947;SDS011;9607;51.600;7.558;2024-02-15T09:47:40;5.88;;;1.88;;
18947;SDS011;9607;51.600;7.558;2024-02-15T09:50:09;2.08;;;1.40;;
18947;SDS011;9607;51.600;7.558;2024-02-15T09:52:38;2.40;;;1.25;;
18947;SDS011;9607;51.600;7.558;2024-02-15T09:55:07;2.80;;;1.52;;
18947;SDS011;9607;51.600;7.558;2024-02-15T09:57:38;3.47;;;1.45;;
18947;SDS011;9607;51.600;7.558;2024-02-15T10:00:05;3.42;;;1.50;;
18947;SDS011;9607;51.600;7.558;2024-02-15T10:02:34;2.58;;;1.25;;
18947;SDS011;9607;51.600;7.558;2024-02-15T10:05:03;3.53;;;1.17;;
18947;SDS011;9607;51.600;7.558;2024-02-15T10:07:32;2.38;;;1.33;;
18947;SDS011;9607;51.600;7.558;2024-02-15T10:10:01;2.13;;;1.23;;
18947;SDS011;9607;51.600;7.558;2024-02-15T10:12:43;4.90;;;1.40;;
18947;SDS011;9607;51.600;7.558;2024-02-15T10:15:10;4.35;;;1.42;;
18947;SDS011;9607;51.600;7.558;2024-02-15T10:17:37;4.10;;;1.33;;
18947;SDS011;9607;51.600;7.558;2024-02-15T10:20:07;2.90;;;1.50;;
18947;SDS011;9607;51.600;7.558;2024-02-15T10:22:37;3.85;;;1.73;;
18947;SDS011;9607;51.600;7.558;2024-02-15T10:25:11;2.67;;;1.50;;
18947;SDS011;9607;51.600;7.558;2024-02-15T10:27:39;3.97;;;1.65;;
18947;SDS011;9607;51.600;7.558;2024-02-15T10:30:19;5.72;;;1.50;;
18947;SDS011;9607;51.600;7.558;2024-02-15T10:32:48;4.13;;;1.40;;
18947;SDS011;9607;51.600;7.558;2024-02-15T10:35:18;2.97;;;1.45;;
18947;SDS011;9607;51.600;7.558;2024-02-15T10:37:47;4.20;;;1.77;;
18947;SDS011;9607;51.600;7.558;2024-02-15T10:40:17;3.83;;;1.38;;
18947;SDS011;9607;51.600;7.558;2024-02-15T10:42:46;2.78;;;1.40;;
18947;SDS011;9607;51.600;7.558;2024-02-15T10:45:14;3.13;;;1.50;;
18947;SDS011;9607;51.600;7.558;2024-02-15T10:47:44;3.28;;;1.10;;
18947;SDS011;9607;51.600;7.558;2024-02-15T10:50:13;3.90;;;1.33;;
18947;SDS011;9607;51.600;7.558;2024-02-15T10:52:43;2.65;;;1.25;;
18947;SDS011;9607;51.600;7.558;2024-02-15T10:55:19;3.63;;;1.83;;
18947;SDS011;9607;51.600;7.558;2024-02-15T10:57:59;5.10;;;1.95;;
18947;SDS011;9607;51.600;7.558;2024-02-15T11:00:29;3.28;;;1.67;;
18947;SDS011;9607;51.600;7.558;2024-02-15T11:03:02;2.50;;;1.27;;
18947;SDS011;9607;51.600;7.558;2024-02-15T11:05:32;1.98;;;1.00;;
18947;SDS011;9607;51.600;7.558;2024-02-15T11:08:06;2.20;;;1.45;;
18947;SDS011;9607;51.600;7.558;2024-02-15T11:10:33;3.60;;;1.30;;
18947;SDS011;9607;51.600;7.558;2024-02-15T11:13:01;3.90;;;1.08;;
18947;SDS011;9607;51.600;7.558;2024-02-15T11:15:41;4.53;;;1.40;;
18947;SDS011;9607;51.600;7.558;2024-02-15T11:21:25;2.78;;;1.00;;
18947;SDS011;9607;51.600;7.558;2024-02-15T11:24:26;4.00;;;1.45;;
18947;SDS011;9607;51.600;7.558;2024-02-15T11:26:57;4.88;;;1.35;;
18947;SDS011;9607;51.600;7.558;2024-02-15T11:32:35;1.85;;;1.45;;
18947;SDS011;9607;51.600;7.558;2024-02-15T11:35:02;3.35;;;1.23;;
18947;SDS011;9607;51.600;7.558;2024-02-15T11:40:59;3.08;;;1.10;;
18947;SDS011;9607;51.600;7.558;2024-02-15T11:43:45;2.97;;;1.33;;
18947;SDS011;9607;51.600;7.558;2024-02-15T11:46:15;7.50;;;1.45;;
18947;SDS011;9607;51.600;7.558;2024-02-15T11:48:43;3.78;;;1.20;;
18947;SDS011;9607;51.600;7.558;2024-02-15T11:51:11;2.63;;;1.17;;
18947;SDS011;9607;51.600;7.558;2024-02-15T11:53:58;3.17;;;1.17;;
18947;SDS011;9607;51.600;7.558;2024-02-15T11:59:19;1.98;;;1.00;;
18947;SDS011;9607;51.600;7.558;2024-02-15T12:01:57;5.03;;;1.40;;
18947;SDS011;9607;51.600;7.558;2024-02-15T12:04:41;3.40;;;1.50;;
18947;SDS011;9607;51.600;7.558;2024-02-15T12:07:26;2.25;;;0.73;;
18947;SDS011;9607;51.600;7.558;2024-02-15T12:10:15;5.68;;;1.75;;
18947;SDS011;9607;51.600;7.558;2024-02-15T12:13:19;2.25;;;1.20;;
18947;SDS011;9607;51.600;7.558;2024-02-15T12:16:03;3.28;;;1.65;;
18947;SDS011;9607;51.600;7.558;2024-02-15T12:18:48;5.80;;;1.50;;
18947;SDS011;9607;51.600;7.558;2024-02-15T12:21:18;2.28;;;1.13;;
18947;SDS011;9607;51.600;7.558;2024-02-15T12:23:48;1.85;;;0.90;;
18947;SDS011;9607;51.600;7.558;2024-02-15T12:26:18;3.15;;;1.10;;
18947;SDS011;9607;51.600;7.558;2024-02-15T12:28:50;3.58;;;1.67;;
18947;SDS011;9607;51.600;7.558;2024-02-15T12:31:19;2.97;;;1.20;;
18947;SDS011;9607;51.600;7.558;2024-02-15T12:33:47;3.28;;;1.48;;
18947;SDS011;9607;51.600;7.558;2024-02-15T12:36:31;2.13;;;1.10;;
18947;SDS011;9607;51.600;7.558;2024-02-15T12:39:01;2.42;;;1.05;;
18947;SDS011;9607;51.600;7.558;2024-02-15T12:41:35;4.15;;;1.05;;
18947;SDS011;9607;51.600;7.558;2024-02-15T12:44:03;3.22;;;1.13;;
18947;SDS011;9607;51.600;7.558;2024-02-15T12:46:33;2.42;;;1.10;;
18947;SDS011;9607;51.600;7.558;2024-02-15T12:49:07;2.60;;;1.02;;
18947;SDS011;9607;51.600;7.558;2024-02-15T12:51:39;3.42;;;1.13;;
18947;SDS011;9607;51.600;7.558;2024-02-15T12:54:08;3.20;;;1.00;;
18947;SDS011;9607;51.600;7.558;2024-02-15T12:56:36;2.38;;;1.00;;
18947;SDS011;9607;51.600;7.558;2024-02-15T12:59:06;2.60;;;1.13;;
18947;SDS011;9607;51.600;7.558;2024-02-15T13:01:32;4.15;;;1.20;;
18947;SDS011;9607;51.600;7.558;2024-02-15T13:04:00;2.05;;;1.05;;
18947;SDS011;9607;51.600;7.558;2024-02-15T13:06:27;3.22;;;1.10;;
18947;SDS011;9607;51.600;7.558;2024-02-15T13:08:54;2.03;;;1.08;;
18947;SDS011;9607;51.600;7.558;2024-02-15T13:11:21;2.22;;;1.10;;
18947;SDS011;9607;51.600;7.558;2024-02-15T13:13:49;3.45;;;0.93;;
18947;SDS011;9607;51.600;7.558;2024-02-15T13:16:17;4.13;;;1.05;;
18947;SDS011;9607;51.600;7.558;2024-02-15T13:18:45;3.47;;;1.27;;
18947;SDS011;9607;51.600;7.558;2024-02-15T13:21:12;2.75;;;1.20;;
18947;SDS011;9607;51.600;7.558;2024-02-15T13:23:39;3.03;;;1.02;;
18947;SDS011;9607;51.600;7.558;2024-02-15T13:26:06;2.83;;;1.13;;
18947;SDS011;9607;51.600;7.558;2024-02-15T13:28:33;4.93;;;1.48;;
18947;SDS011;9607;51.600;7.558;2024-02-15T13:31:00;1.38;;;0.85;;
18947;SDS011;9607;51.600;7.558;2024-02-15T13:33:29;2.70;;;1.20;;
18947;SDS011;9607;51.600;7.558;2024-02-15T13:35:57;2.38;;;1.02;;
18947;SDS011;9607;51.600;7.558;2024-02-15T13:38:24;1.95;;;1.05;;
18947;SDS011;9607;51.600;7.558;2024-02-15T13:40:53;3.47;;;1.30;;
18947;SDS011;9607;51.600;7.558;2024-02-15T13:43:23;1.83;;;0.93;;
18947;SDS011;9607;51.600;7.558;2024-02-15T13:45:50;2.55;;;0.98;;
18947;SDS011;9607;51.600;7.558;2024-02-15T13:48:17;2.15;;;1.00;;
18947;SDS011;9607;51.600;7.558;2024-02-15T13:50:46;2.97;;;0.93;;
18947;SDS011;9607;51.600;7.558;2024-02-15T13:53:12;2.47;;;0.93;;
18947;SDS011;9607;51.600;7.558;2024-02-15T13:55:39;3.15;;;1.27;;
18947;SDS011;9607;51.600;7.558;2024-02-15T13:58:06;3.33;;;1.02;;
18947;SDS011;9607;51.600;7.558;2024-02-15T14:00:37;4.60;;;1.40;;
18947;SDS011;9607;51.600;7.558;2024-02-15T14:03:07;3.60;;;1.27;;
18947;SDS011;9607;51.600;7.558;2024-02-15T14:05:35;3.42;;;1.20;;
18947;SDS011;9607;51.600;7.558;2024-02-15T14:08:06;2.40;;;1.00;;
18947;SDS011;9607;51.600;7.558;2024-02-15T14:10:34;2.15;;;1.05;;
18947;SDS011;9607;51.600;7.558;2024-02-15T14:13:02;2.28;;;1.35;;
18947;SDS011;9607;51.600;7.558;2024-02-15T14:15:30;1.65;;;1.00;;
18947;SDS011;9607;51.600;7.558;2024-02-15T14:17:59;2.08;;;0.90;;
18947;SDS011;9607;51.600;7.558;2024-02-15T14:20:26;1.88;;;1.00;;
18947;SDS011;9607;51.600;7.558;2024-02-15T14:22:53;3.33;;;1.17;;
18947;SDS011;9607;51.600;7.558;2024-02-15T14:25:23;1.30;;;0.90;;
18947;SDS011;9607;51.600;7.558;2024-02-15T14:27:50;2.72;;;1.10;;
18947;SDS011;9607;51.600;7.558;2024-02-15T14:30:17;3.95;;;1.20;;
18947;SDS011;9607;51.600;7.558;2024-02-15T14:33:02;1.55;;;1.00;;
18947;SDS011;9607;51.600;7.558;2024-02-15T14:35:30;2.50;;;1.27;;
18947;SDS011;9607;51.600;7.558;2024-02-15T14:37:59;2.35;;;0.90;;
18947;SDS011;9607;51.600;7.558;2024-02-15T14:40:31;4.45;;;1.10;;
18947;SDS011;9607;51.600;7.558;2024-02-15T14:42:59;2.33;;;0.90;;
18947;SDS011;9607;51.600;7.558;2024-02-15T14:45:26;6.53;;;1.13;;
18947;SDS011;9607;51.600;7.558;2024-02-15T14:47:53;3.58;;;0.90;;
18947;SDS011;9607;51.600;7.558;2024-02-15T14:50:20;1.42;;;0.80;;
18947;SDS011;9607;51.600;7.558;2024-02-15T14:52:48;1.20;;;0.75;;
18947;SDS011;9607;51.600;7.558;2024-02-15T14:55:17;2.40;;;1.00;;
18947;SDS011;9607;51.600;7.558;2024-02-15T14:57:45;3.42;;;1.02;;
18947;SDS011;9607;51.600;7.558;2024-02-15T15:00:13;6.00;;;1.30;;
18947;SDS011;9607;51.600;7.558;2024-02-15T15:02:43;3.40;;;0.93;;
18947;SDS011;9607;51.600;7.558;2024-02-15T15:05:11;2.22;;;0.90;;
18947;SDS011;9607;51.600;7.558;2024-02-15T15:07:56;3.92;;;1.00;;
18947;SDS011;9607;51.600;7.558;2024-02-15T15:10:40;3.10;;;1.02;;
18947;SDS011;9607;51.600;7.558;2024-02-15T15:13:25;4.55;;;1.50;;
18947;SDS011;9607;51.600;7.558;2024-02-15T15:15:52;3.22;;;1.05;;
18947;SDS011;9607;51.600;7.558;2024-02-15T15:18:19;3.55;;;1.25;;
18947;SDS011;9607;51.600;7.558;2024-02-15T15:20:46;2.55;;;1.15;;
18947;SDS011;9607;51.600;7.558;2024-02-15T15:23:13;3.65;;;1.25;;